sensor_id;sensor_type;location;lat;lon;timestamp;P1;durP1;ratioP1;P2;durP2;ratioP2
77276;SDS011;66330;52.166;9.978;2023-03-17T00:01:33;3.00;;;2.80;;
77276;SDS011;66330;52.166;9.978;2023-03-17T00:03:59;3.00;;;2.70;;
77276;SDS011;66330;52.166;9.978;2023-03-17T00:06:28;3.30;;;2.70;;
77276;SDS011;66330;52.166;9.978;2023-03-17T00:08:55;3.70;;;2.80;;
77276;SDS011;66330;52.166;9.978;2023-03-17T00:11:22;4.70;;;3.37;;
77276;SDS011;66330;52.166;9.978;2023-03-17T00:13:48;3.47;;;2.87;;
77276;SDS011;66330;52.166;9.978;2023-03-17T00:18:50;3.30;;;3.00;;
77276;SDS011;66330;52.166;9.978;2023-03-17T00:21:23;2.83;;;2.63;;
77276;SDS011;66330;52.166;9.978;2023-03-17T00:23:52;3.07;;;2.77;;
77276;SDS011;66330;52.166;9.978;2023-03-17T00:26:19;5.23;;;3.00;;
77276;SDS011;66330;52.166;9.978;2023-03-17T00:28:45;3.23;;;3.00;;
77276;SDS011;66330;52.166;9.978;2023-03-17T00:31:15;4.00;;;3.53;;
77276;SDS011;66330;52.166;9.978;2023-03-17T00:33:43;3.20;;;2.67;;
77276;SDS011;66330;52.166;9.978;2023-03-17T00:36:09;3.30;;;3.00;;
77276;SDS011;66330;52.166;9.978;2023-03-17T00:38:40;4.30;;;3.20;;
77276;SDS011;66330;52.166;9.978;2023-03-17T00:41:07;4.40;;;3.37;;
77276;SDS011;66330;52.166;9.978;2023-03-17T00:43:33;3.93;;;3.03;;
77276;SDS011;66330;52.166;9.978;2023-03-17T00:45:59;3.57;;;3.17;;
77276;SDS011;66330;52.166;9.978;2023-03-17T00:48:26;3.60;;;3.30;;
77276;SDS011;66330;52.166;9.978;2023-03-17T00:50:53;4.13;;;3.40;;
77276;SDS011;66330;52.166;9.978;2023-03-17T00:53:20;3.73;;;3.43;;
77276;SDS011;66330;52.166;9.978;2023-03-17T00:55:46;3.70;;;3.40;;
77276;SDS011;66330;52.166;9.978;2023-03-17T00:58:14;3.97;;;3.47;;
77276;SDS011;66330;52.166;9.978;2023-03-17T01:00:43;4.20;;;3.77;;
77276;SDS011;66330;52.166;9.978;2023-03-17T01:03:10;4.23;;;3.73;;
77276;SDS011;66330;52.166;9.978;2023-03-17T01:05:36;4.63;;;3.93;;
77276;SDS011;66330;52.166;9.978;2023-03-17T01:08:02;3.70;;;3.40;;
77276;SDS011;66330;52.166;9.978;2023-03-17T01:10:28;5.33;;;3.37;;
77276;SDS011;66330;52.166;9.978;2023-03-17T01:12:55;4.30;;;3.90;;
77276;SDS011;66330;52.166;9.978;2023-03-17T01:15:26;4.83;;;3.80;;
77276;SDS011;66330;52.166;9.978;2023-03-17T01:17:55;4.23;;;3.80;;
77276;SDS011;66330;52.166;9.978;2023-03-17T01:20:23;4.87;;;3.60;;
77276;SDS011;66330;52.166;9.978;2023-03-17T01:22:54;4.93;;;3.40;;
77276;SDS011;66330;52.166;9.978;2023-03-17T01:25:20;4.40;;;3.77;;
77276;SDS011;66330;52.166;9.978;2023-03-17T01:27:46;3.73;;;3.33;;
77276;SDS011;66330;52.166;9.978;2023-03-17T01:30:20;4.33;;;3.30;;
77276;SDS011;66330;52.166;9.978;2023-03-17T01:32:49;4.07;;;3.67;;
77276;SDS011;66330;52.166;9.978;2023-03-17T01:35:16;4.77;;;3.90;;
77276;SDS011;66330;52.166;9.978;2023-03-17T01:37:42;3.63;;;3.33;;
77276;SDS011;66330;52.166;9.978;2023-03-17T01:40:19;4.57;;;3.50;;
77276;SDS011;66330;52.166;9.978;2023-03-17T01:42:53;4.00;;;3.37;;
77276;SDS011;66330;52.166;9.978;2023-03-17T01:48:27;4.43;;;4.03;;
77276;SDS011;66330;52.166;9.978;2023-03-17T01:50:58;4.50;;;4.10;;
77276;SDS011;66330;52.166;9.978;2023-03-17T01:53:23;3.83;;;3.43;;
77276;SDS011;66330;52.166;9.978;2023-03-17T01:55:50;3.73;;;3.20;;
77276;SDS011;66330;52.166;9.978;2023-03-17T01:58:18;4.27;;;3.87;;
77276;SDS011;66330;52.166;9.978;2023-03-17T02:00:47;2.97;;;2.70;;
77276;SDS011;66330;52.166;9.978;2023-03-17T02:03:12;4.20;;;3.57;;
77276;SDS011;66330;52.166;9.978;2023-03-17T02:05:38;4.60;;;3.13;;
77276;SDS011;66330;52.166;9.978;2023-03-17T02:08:08;3.67;;;3.27;;
77276;SDS011;66330;52.166;9.978;2023-03-17T02:10:36;3.10;;;2.90;;
77276;SDS011;66330;52.166;9.978;2023-03-17T02:13:02;4.00;;;3.60;;
77276;SDS011;66330;52.166;9.978;2023-03-17T02:15:40;3.63;;;3.33;;
77276;SDS011;66330;52.166;9.978;2023-03-17T02:18:12;3.87;;;3.43;;
77276;SDS011;66330;52.166;9.978;2023-03-17T02:23:04;4.60;;;4.10;;
77276;SDS011;66330;52.166;9.978;2023-03-17T02:25:32;3.73;;;3.43;;
77276;SDS011;66330;52.166;9.978;2023-03-17T02:28:06;5.10;;;4.00;;
77276;SDS011;66330;52.166;9.978;2023-03-17T02:30:37;3.47;;;3.17;;
77276;SDS011;66330;52.166;9.978;2023-03-17T02:33:03;4.30;;;3.77;;
77276;SDS011;66330;52.166;9.978;2023-03-17T02:35:28;4.87;;;4.17;;
77276;SDS011;66330;52.166;9.978;2023-03-17T02:37:54;4.97;;;3.60;;
77276;SDS011;66330;52.166;9.978;2023-03-17T02:40:20;4.03;;;3.63;;
77276;SDS011;66330;52.166;9.978;2023-03-17T02:42:47;4.40;;;4.00;;
77276;SDS011;66330;52.166;9.978;2023-03-17T02:45:13;3.80;;;3.47;;
77276;SDS011;66330;52.166;9.978;2023-03-17T02:47:39;4.40;;;3.30;;
77276;SDS011;66330;52.166;9.978;2023-03-17T02:50:06;4.33;;;3.60;;
77276;SDS011;66330;52.166;9.978;2023-03-17T02:52:33;5.00;;;4.60;;
77276;SDS011;66330;52.166;9.978;2023-03-17T02:54:59;3.97;;;3.60;;
77276;SDS011;66330;52.166;9.978;2023-03-17T02:57:25;4.60;;;3.70;;
77276;SDS011;66330;52.166;9.978;2023-03-17T02:59:51;4.00;;;3.60;;
77276;SDS011;66330;52.166;9.978;2023-03-17T03:02:17;4.03;;;3.60;;
77276;SDS011;66330;52.166;9.978;2023-03-17T03:04:43;4.40;;;3.30;;
77276;SDS011;66330;52.166;9.978;2023-03-17T03:07:09;5.27;;;4.37;;
77276;SDS011;66330;52.166;9.978;2023-03-17T03:09:35;5.83;;;3.73;;
77276;SDS011;66330;52.166;9.978;2023-03-17T03:12:01;4.40;;;4.00;;
77276;SDS011;66330;52.166;9.978;2023-03-17T03:14:28;5.07;;;3.87;;
77276;SDS011;66330;52.166;9.978;2023-03-17T03:16:53;4.03;;;3.40;;
77276;SDS011;66330;52.166;9.978;2023-03-17T03:19:19;3.90;;;3.60;;
77276;SDS011;66330;52.166;9.978;2023-03-17T03:21:45;4.53;;;4.00;;
77276;SDS011;66330;52.166;9.978;2023-03-17T03:24:10;3.93;;;3.60;;
77276;SDS011;66330;52.166;9.978;2023-03-17T03:26:36;3.90;;;3.33;;
77276;SDS011;66330;52.166;9.978;2023-03-17T03:29:02;3.83;;;3.43;;
77276;SDS011;66330;52.166;9.978;2023-03-17T03:31:28;4.60;;;4.07;;
77276;SDS011;66330;52.166;9.978;2023-03-17T03:33:54;4.60;;;4.00;;
77276;SDS011;66330;52.166;9.978;2023-03-17T03:36:20;4.27;;;3.87;;
77276;SDS011;66330;52.166;9.978;2023-03-17T03:38:46;4.83;;;3.90;;
77276;SDS011;66330;52.166;9.978;2023-03-17T03:41:11;5.70;;;4.00;;
77276;SDS011;66330;52.166;9.978;2023-03-17T03:43:38;5.07;;;4.13;;
77276;SDS011;66330;52.166;9.978;2023-03-17T03:46:03;4.10;;;3.70;;
77276;SDS011;66330;52.166;9.978;2023-03-17T03:48:29;4.27;;;3.87;;
77276;SDS011;66330;52.166;9.978;2023-03-17T03:50:58;5.10;;;4.13;;
77276;SDS011;66330;52.166;9.978;2023-03-17T03:53:25;3.60;;;3.30;;
77276;SDS011;66330;52.166;9.978;2023-03-17T03:55:52;3.57;;;3.27;;
77276;SDS011;66330;52.166;9.978;2023-03-17T03:58:18;4.43;;;3.80;;
77276;SDS011;66330;52.166;9.978;2023-03-17T04:00:44;4.80;;;4.10;;
77276;SDS011;66330;52.166;9.978;2023-03-17T04:03:10;3.60;;;3.27;;
77276;SDS011;66330;52.166;9.978;2023-03-17T04:05:36;4.60;;;4.13;;
77276;SDS011;66330;52.166;9.978;2023-03-17T04:08:02;4.53;;;3.97;;
77276;SDS011;66330;52.166;9.978;2023-03-17T04:10:28;4.23;;;3.87;;
77276;SDS011;66330;52.166;9.978;2023-03-17T04:12:53;4.53;;;3.70;;
77276;SDS011;66330;52.166;9.978;2023-03-17T04:15:20;4.10;;;3.70;;
77276;SDS011;66330;52.166;9.978;2023-03-17T04:17:46;3.90;;;3.43;;
77276;SDS011;66330;52.166;9.978;2023-03-17T04:20:12;3.87;;;3.47;;
77276;SDS011;66330;52.166;9.978;2023-03-17T04:22:39;3.60;;;3.27;;
77276;SDS011;66330;52.166;9.978;2023-03-17T04:25:06;4.57;;;4.07;;
77276;SDS011;66330;52.166;9.978;2023-03-17T04:27:33;4.00;;;3.70;;
77276;SDS011;66330;52.166;9.978;2023-03-17T04:29:58;3.83;;;3.33;;
77276;SDS011;66330;52.166;9.978;2023-03-17T04:32:25;4.80;;;4.30;;
77276;SDS011;66330;52.166;9.978;2023-03-17T04:34:51;3.73;;;3.43;;
77276;SDS011;66330;52.166;9.978;2023-03-17T04:37:17;4.43;;;3.30;;
77276;SDS011;66330;52.166;9.978;2023-03-17T04:39:42;3.80;;;3.40;;
77276;SDS011;66330;52.166;9.978;2023-03-17T04:42:08;4.47;;;3.70;;
77276;SDS011;66330;52.166;9.978;2023-03-17T04:44:34;4.40;;;4.00;;
77276;SDS011;66330;52.166;9.978;2023-03-17T04:47:00;4.20;;;3.10;;
77276;SDS011;66330;52.166;9.978;2023-03-17T04:49:26;4.33;;;3.53;;
77276;SDS011;66330;52.166;9.978;2023-03-17T04:51:52;4.60;;;4.20;;
77276;SDS011;66330;52.166;9.978;2023-03-17T04:54:18;4.77;;;4.37;;
77276;SDS011;66330;52.166;9.978;2023-03-17T04:56:44;4.40;;;4.00;;
77276;SDS011;66330;52.166;9.978;2023-03-17T04:59:09;7.33;;;3.73;;
77276;SDS011;66330;52.166;9.978;2023-03-17T05:01:35;4.67;;;4.27;;
77276;SDS011;66330;52.166;9.978;2023-03-17T05:04:01;4.00;;;3.70;;
77276;SDS011;66330;52.166;9.978;2023-03-17T05:06:27;4.23;;;3.67;;
77276;SDS011;66330;52.166;9.978;2023-03-17T05:08:54;4.33;;;3.77;;
77276;SDS011;66330;52.166;9.978;2023-03-17T05:11:20;4.60;;;4.10;;
77276;SDS011;66330;52.166;9.978;2023-03-17T05:13:45;3.87;;;3.50;;
77276;SDS011;66330;52.166;9.978;2023-03-17T05:16:11;4.40;;;4.00;;
77276;SDS011;66330;52.166;9.978;2023-03-17T05:18:36;5.40;;;4.50;;
77276;SDS011;66330;52.166;9.978;2023-03-17T05:21:03;4.43;;;4.03;;
77276;SDS011;66330;52.166;9.978;2023-03-17T05:23:30;5.13;;;3.73;;
77276;SDS011;66330;52.166;9.978;2023-03-17T05:25:56;5.60;;;4.57;;
77276;SDS011;66330;52.166;9.978;2023-03-17T05:28:21;4.27;;;3.87;;
77276;SDS011;66330;52.166;9.978;2023-03-17T05:30:47;4.47;;;4.00;;
77276;SDS011;66330;52.166;9.978;2023-03-17T05:33:13;4.40;;;4.10;;
77276;SDS011;66330;52.166;9.978;2023-03-17T05:35:40;4.37;;;3.70;;
77276;SDS011;66330;52.166;9.978;2023-03-17T05:38:07;4.13;;;3.83;;
77276;SDS011;66330;52.166;9.978;2023-03-17T05:40:34;6.27;;;3.70;;
77276;SDS011;66330;52.166;9.978;2023-03-17T05:43:01;4.00;;;3.60;;
77276;SDS011;66330;52.166;9.978;2023-03-17T05:45:27;4.13;;;3.40;;
77276;SDS011;66330;52.166;9.978;2023-03-17T05:47:53;3.70;;;3.40;;
77276;SDS011;66330;52.166;9.978;2023-03-17T05:50:19;3.60;;;3.30;;
77276;SDS011;66330;52.166;9.978;2023-03-17T05:52:44;4.10;;;3.70;;
77276;SDS011;66330;52.166;9.978;2023-03-17T05:55:11;5.87;;;4.30;;
77276;SDS011;66330;52.166;9.978;2023-03-17T05:57:37;3.90;;;3.50;;
77276;SDS011;66330;52.166;9.978;2023-03-17T06:00:02;3.60;;;3.30;;
77276;SDS011;66330;52.166;9.978;2023-03-17T06:02:29;5.63;;;3.77;;
77276;SDS011;66330;52.166;9.978;2023-03-17T06:04:55;5.93;;;4.03;;
77276;SDS011;66330;52.166;9.978;2023-03-17T06:07:20;5.80;;;4.50;;
77276;SDS011;66330;52.166;9.978;2023-03-17T06:09:46;6.70;;;4.43;;
77276;SDS011;66330;52.166;9.978;2023-03-17T06:12:12;4.73;;;3.63;;
77276;SDS011;66330;52.166;9.978;2023-03-17T06:14:37;3.93;;;3.60;;
77276;SDS011;66330;52.166;9.978;2023-03-17T06:17:03;5.53;;;5.00;;
77276;SDS011;66330;52.166;9.978;2023-03-17T06:19:29;4.80;;;4.00;;
77276;SDS011;66330;52.166;9.978;2023-03-17T06:21:55;3.47;;;3.17;;
77276;SDS011;66330;52.166;9.978;2023-03-17T06:24:20;3.97;;;3.27;;
77276;SDS011;66330;52.166;9.978;2023-03-17T06:26:46;3.70;;;3.40;;
77276;SDS011;66330;52.166;9.978;2023-03-17T06:29:12;4.97;;;3.33;;
77276;SDS011;66330;52.166;9.978;2023-03-17T06:31:37;4.40;;;4.00;;
77276;SDS011;66330;52.166;9.978;2023-03-17T06:34:04;3.30;;;3.00;;
77276;SDS011;66330;52.166;9.978;2023-03-17T06:36:31;3.60;;;3.30;;
77276;SDS011;66330;52.166;9.978;2023-03-17T06:38:57;3.90;;;3.50;;
77276;SDS011;66330;52.166;9.978;2023-03-17T06:41:24;3.90;;;3.33;;
77276;SDS011;66330;52.166;9.978;2023-03-17T06:43:50;4.37;;;3.73;;
77276;SDS011;66330;52.166;9.978;2023-03-17T06:46:16;3.87;;;3.30;;
77276;SDS011;66330;52.166;9.978;2023-03-17T06:48:42;3.93;;;3.50;;
77276;SDS011;66330;52.166;9.978;2023-03-17T06:51:08;3.77;;;3.47;;
77276;SDS011;66330;52.166;9.978;2023-03-17T06:53:34;3.40;;;3.10;;
77276;SDS011;66330;52.166;9.978;2023-03-17T06:56:00;3.77;;;3.43;;
77276;SDS011;66330;52.166;9.978;2023-03-17T06:58:26;3.93;;;3.30;;
77276;SDS011;66330;52.166;9.978;2023-03-17T07:00:51;4.57;;;3.23;;
77276;SDS011;66330;52.166;9.978;2023-03-17T07:03:18;4.30;;;2.87;;
77276;SDS011;66330;52.166;9.978;2023-03-17T07:05:44;3.40;;;3.10;;
77276;SDS011;66330;52.166;9.978;2023-03-17T07:08:10;4.77;;;4.27;;
77276;SDS011;66330;52.166;9.978;2023-03-17T07:10:36;4.57;;;3.67;;
77276;SDS011;66330;52.166;9.978;2023-03-17T07:13:02;6.00;;;3.87;;
77276;SDS011;66330;52.166;9.978;2023-03-17T07:15:31;4.07;;;3.67;;
77276;SDS011;66330;52.166;9.978;2023-03-17T07:17:58;3.33;;;3.03;;
77276;SDS011;66330;52.166;9.978;2023-03-17T07:20:24;3.90;;;3.60;;
77276;SDS011;66330;52.166;9.978;2023-03-17T07:22:50;5.00;;;2.97;;
77276;SDS011;66330;52.166;9.978;2023-03-17T07:25:16;3.70;;;3.00;;
77276;SDS011;66330;52.166;9.978;2023-03-17T07:27:42;2.60;;;2.40;;
77276;SDS011;66330;52.166;9.978;2023-03-17T07:30:07;2.80;;;2.60;;
77276;SDS011;66330;52.166;9.978;2023-03-17T07:32:34;4.00;;;3.63;;
77276;SDS011;66330;52.166;9.978;2023-03-17T07:35:00;4.50;;;2.83;;
77276;SDS011;66330;52.166;9.978;2023-03-17T07:37:26;3.33;;;3.03;;
77276;SDS011;66330;52.166;9.978;2023-03-17T07:39:51;4.77;;;3.20;;
77276;SDS011;66330;52.166;9.978;2023-03-17T07:42:17;4.03;;;3.57;;
77276;SDS011;66330;52.166;9.978;2023-03-17T07:44:43;3.33;;;2.87;;
77276;SDS011;66330;52.166;9.978;2023-03-17T07:47:11;3.40;;;2.53;;
77276;SDS011;66330;52.166;9.978;2023-03-17T07:49:38;2.83;;;2.40;;
77276;SDS011;66330;52.166;9.978;2023-03-17T07:52:04;3.00;;;2.33;;
77276;SDS011;66330;52.166;9.978;2023-03-17T07:54:30;2.30;;;2.10;;
77276;SDS011;66330;52.166;9.978;2023-03-17T07:56:56;4.10;;;3.00;;
77276;SDS011;66330;52.166;9.978;2023-03-17T07:59:22;3.47;;;2.70;;
77276;SDS011;66330;52.166;9.978;2023-03-17T08:01:47;4.07;;;2.80;;
77276;SDS011;66330;52.166;9.978;2023-03-17T08:04:13;3.27;;;2.93;;
77276;SDS011;66330;52.166;9.978;2023-03-17T08:06:39;3.90;;;3.33;;
77276;SDS011;66330;52.166;9.978;2023-03-17T08:09:06;3.67;;;2.63;;
77276;SDS011;66330;52.166;9.978;2023-03-17T08:11:36;2.90;;;2.47;;
77276;SDS011;66330;52.166;9.978;2023-03-17T08:14:02;3.00;;;2.80;;
77276;SDS011;66330;52.166;9.978;2023-03-17T08:16:29;2.90;;;2.70;;
77276;SDS011;66330;52.166;9.978;2023-03-17T08:18:54;2.80;;;2.60;;
77276;SDS011;66330;52.166;9.978;2023-03-17T08:21:22;2.57;;;2.37;;
77276;SDS011;66330;52.166;9.978;2023-03-17T08:23:49;4.40;;;2.83;;
77276;SDS011;66330;52.166;9.978;2023-03-17T08:26:15;3.10;;;2.80;;
77276;SDS011;66330;52.166;9.978;2023-03-17T08:28:42;2.50;;;2.30;;
77276;SDS011;66330;52.166;9.978;2023-03-17T08:31:12;3.20;;;2.13;;
77276;SDS011;66330;52.166;9.978;2023-03-17T08:33:47;2.73;;;2.20;;
77276;SDS011;66330;52.166;9.978;2023-03-17T08:36:14;2.83;;;2.20;;
77276;SDS011;66330;52.166;9.978;2023-03-17T08:38:41;2.70;;;2.50;;
77276;SDS011;66330;52.166;9.978;2023-03-17T08:41:11;2.97;;;2.53;;
77276;SDS011;66330;52.166;9.978;2023-03-17T08:43:38;2.60;;;2.40;;
77276;SDS011;66330;52.166;9.978;2023-03-17T08:46:27;2.30;;;2.10;;
77276;SDS011;66330;52.166;9.978;2023-03-17T08:48:53;2.63;;;2.43;;
77276;SDS011;66330;52.166;9.978;2023-03-17T08:51:21;2.70;;;2.47;;
77276;SDS011;66330;52.166;9.978;2023-03-17T08:53:48;2.80;;;2.50;;
77276;SDS011;66330;52.166;9.978;2023-03-17T08:56:15;2.70;;;2.50;;
77276;SDS011;66330;52.166;9.978;2023-03-17T08:58:41;2.93;;;2.50;;
77276;SDS011;66330;52.166;9.978;2023-03-17T09:01:07;4.10;;;2.13;;
77276;SDS011;66330;52.166;9.978;2023-03-17T09:03:34;2.60;;;2.40;;
77276;SDS011;66330;52.166;9.978;2023-03-17T09:06:03;2.73;;;2.53;;
77276;SDS011;66330;52.166;9.978;2023-03-17T09:08:31;3.27;;;2.67;;
77276;SDS011;66330;52.166;9.978;2023-03-17T09:11:03;2.67;;;2.47;;
77276;SDS011;66330;52.166;9.978;2023-03-17T09:13:31;2.60;;;2.40;;
77276;SDS011;66330;52.166;9.978;2023-03-17T09:16:01;2.50;;;2.30;;
77276;SDS011;66330;52.166;9.978;2023-03-17T09:18:27;3.53;;;2.37;;
77276;SDS011;66330;52.166;9.978;2023-03-17T09:20:55;2.57;;;2.37;;
77276;SDS011;66330;52.166;9.978;2023-03-17T09:23:21;3.33;;;2.50;;
77276;SDS011;66330;52.166;9.978;2023-03-17T09:25:47;3.30;;;2.70;;
77276;SDS011;66330;52.166;9.978;2023-03-17T09:28:13;2.33;;;2.13;;
77276;SDS011;66330;52.166;9.978;2023-03-17T09:30:39;2.10;;;1.90;;
77276;SDS011;66330;52.166;9.978;2023-03-17T09:33:06;2.97;;;2.77;;
77276;SDS011;66330;52.166;9.978;2023-03-17T09:35:38;3.17;;;2.53;;
77276;SDS011;66330;52.166;9.978;2023-03-17T09:38:05;3.20;;;2.60;;
77276;SDS011;66330;52.166;9.978;2023-03-17T09:40:32;2.47;;;2.27;;
77276;SDS011;66330;52.166;9.978;2023-03-17T09:45:45;2.47;;;2.27;;
77276;SDS011;66330;52.166;9.978;2023-03-17T09:48:35;2.17;;;1.97;;
77276;SDS011;66330;52.166;9.978;2023-03-17T09:51:11;3.03;;;2.57;;
77276;SDS011;66330;52.166;9.978;2023-03-17T09:53:57;2.90;;;2.60;;
77276;SDS011;66330;52.166;9.978;2023-03-17T09:56:25;2.43;;;2.20;;
77276;SDS011;66330;52.166;9.978;2023-03-17T09:59:03;3.17;;;2.70;;
77276;SDS011;66330;52.166;9.978;2023-03-17T10:01:42;3.23;;;2.13;;
77276;SDS011;66330;52.166;9.978;2023-03-17T10:04:08;2.40;;;2.20;;
77276;SDS011;66330;52.166;9.978;2023-03-17T10:06:36;2.87;;;2.07;;
77276;SDS011;66330;52.166;9.978;2023-03-17T10:22:24;2.23;;;2.03;;
77276;SDS011;66330;52.166;9.978;2023-03-17T10:24:56;2.33;;;2.13;;
77276;SDS011;66330;52.166;9.978;2023-03-17T10:27:27;2.50;;;2.30;;
77276;SDS011;66330;52.166;9.978;2023-03-17T10:29:58;2.37;;;2.17;;
77276;SDS011;66330;52.166;9.978;2023-03-17T10:32:23;2.93;;;2.40;;
77276;SDS011;66330;52.166;9.978;2023-03-17T10:34:51;3.87;;;2.77;;
77276;SDS011;66330;52.166;9.978;2023-03-17T10:37:19;2.40;;;2.20;;
77276;SDS011;66330;52.166;9.978;2023-03-17T10:39:51;2.83;;;2.20;;
77276;SDS011;66330;52.166;9.978;2023-03-17T10:44:54;3.27;;;2.37;;
77276;SDS011;66330;52.166;9.978;2023-03-17T10:47:28;2.57;;;2.37;;
77276;SDS011;66330;52.166;9.978;2023-03-17T10:52:39;3.40;;;2.17;;
77276;SDS011;66330;52.166;9.978;2023-03-17T10:55:06;2.63;;;2.23;;
77276;SDS011;66330;52.166;9.978;2023-03-17T10:57:37;2.60;;;2.40;;
77276;SDS011;66330;52.166;9.978;2023-03-17T11:00:11;2.17;;;1.97;;
77276;SDS011;66330;52.166;9.978;2023-03-17T11:02:46;2.27;;;2.07;;
77276;SDS011;66330;52.166;9.978;2023-03-17T11:05:21;3.10;;;2.20;;
77276;SDS011;66330;52.166;9.978;2023-03-17T11:07:56;4.00;;;2.70;;
77276;SDS011;66330;52.166;9.978;2023-03-17T11:10:34;3.00;;;2.70;;
77276;SDS011;66330;52.166;9.978;2023-03-17T11:13:01;2.70;;;2.30;;
77276;SDS011;66330;52.166;9.978;2023-03-17T11:15:29;2.50;;;2.30;;
77276;SDS011;66330;52.166;9.978;2023-03-17T11:17:59;2.70;;;2.37;;
77276;SDS011;66330;52.166;9.978;2023-03-17T11:25:53;2.90;;;2.20;;
77276;SDS011;66330;52.166;9.978;2023-03-17T11:28:34;3.20;;;2.50;;
77276;SDS011;66330;52.166;9.978;2023-03-17T11:34:07;3.70;;;2.60;;
77276;SDS011;66330;52.166;9.978;2023-03-17T11:39:13;2.40;;;2.20;;
77276;SDS011;66330;52.166;9.978;2023-03-17T11:50:54;3.00;;;2.70;;
77276;SDS011;66330;52.166;9.978;2023-03-17T11:55:53;2.60;;;2.40;;
77276;SDS011;66330;52.166;9.978;2023-03-17T11:58:35;3.07;;;2.70;;
77276;SDS011;66330;52.166;9.978;2023-03-17T12:01:06;2.53;;;2.33;;
77276;SDS011;66330;52.166;9.978;2023-03-17T12:06:09;5.40;;;2.90;;
77276;SDS011;66330;52.166;9.978;2023-03-17T12:08:45;2.30;;;2.00;;
77276;SDS011;66330;52.166;9.978;2023-03-17T12:11:20;2.80;;;2.30;;
77276;SDS011;66330;52.166;9.978;2023-03-17T12:16:31;2.97;;;2.40;;
77276;SDS011;66330;52.166;9.978;2023-03-17T12:24:21;2.50;;;2.30;;
77276;SDS011;66330;52.166;9.978;2023-03-17T12:26:55;4.00;;;2.60;;
77276;SDS011;66330;52.166;9.978;2023-03-17T12:29:43;3.00;;;2.43;;
77276;SDS011;66330;52.166;9.978;2023-03-17T12:35:22;2.90;;;2.00;;
77276;SDS011;66330;52.166;9.978;2023-03-17T12:37:57;2.77;;;2.10;;
77276;SDS011;66330;52.166;9.978;2023-03-17T12:40:26;2.53;;;1.90;;
77276;SDS011;66330;52.166;9.978;2023-03-17T12:48:57;2.70;;;1.97;;
77276;SDS011;66330;52.166;9.978;2023-03-17T12:54:24;5.27;;;1.90;;
77276;SDS011;66330;52.166;9.978;2023-03-17T12:56:52;2.23;;;2.03;;
77276;SDS011;66330;52.166;9.978;2023-03-17T12:59:45;2.20;;;1.90;;
77276;SDS011;66330;52.166;9.978;2023-03-17T13:02:14;1.97;;;1.80;;
77276;SDS011;66330;52.166;9.978;2023-03-17T13:04:53;2.20;;;2.00;;
77276;SDS011;66330;52.166;9.978;2023-03-17T13:07:32;1.70;;;1.60;;
77276;SDS011;66330;52.166;9.978;2023-03-17T13:10:16;2.30;;;2.03;;
77276;SDS011;66330;52.166;9.978;2023-03-17T13:21:22;2.37;;;1.93;;
77276;SDS011;66330;52.166;9.978;2023-03-17T13:23:32;1.50;;;1.40;;
77276;SDS011;66330;52.166;9.978;2023-03-17T13:26:18;1.97;;;1.87;;
77276;SDS011;66330;52.166;9.978;2023-03-17T13:28:48;2.70;;;2.40;;
77276;SDS011;66330;52.166;9.978;2023-03-17T13:31:33;2.60;;;2.40;;
77276;SDS011;66330;52.166;9.978;2023-03-17T13:34:01;2.07;;;1.83;;
77276;SDS011;66330;52.166;9.978;2023-03-17T13:36:46;1.80;;;1.70;;
77276;SDS011;66330;52.166;9.978;2023-03-17T13:39:28;2.20;;;1.87;;
77276;SDS011;66330;52.166;9.978;2023-03-17T13:42:22;1.80;;;1.70;;
77276;SDS011;66330;52.166;9.978;2023-03-17T13:47:48;5.77;;;1.63;;
77276;SDS011;66330;52.166;9.978;2023-03-17T13:50:16;4.53;;;1.57;;
77276;SDS011;66330;52.166;9.978;2023-03-17T13:52:48;2.20;;;1.70;;
77276;SDS011;66330;52.166;9.978;2023-03-17T13:57:54;2.20;;;1.70;;
77276;SDS011;66330;52.166;9.978;2023-03-17T14:00:45;1.47;;;1.37;;
77276;SDS011;66330;52.166;9.978;2023-03-17T14:05:57;1.80;;;1.60;;
77276;SDS011;66330;52.166;9.978;2023-03-17T14:08:34;1.83;;;1.73;;
77276;SDS011;66330;52.166;9.978;2023-03-17T14:11:06;1.70;;;1.50;;
77276;SDS011;66330;52.166;9.978;2023-03-17T14:13:46;1.80;;;1.70;;
77276;SDS011;66330;52.166;9.978;2023-03-17T14:16:27;2.87;;;1.90;;
77276;SDS011;66330;52.166;9.978;2023-03-17T14:18:59;2.07;;;1.50;;
77276;SDS011;66330;52.166;9.978;2023-03-17T14:21:44;1.80;;;1.70;;
77276;SDS011;66330;52.166;9.978;2023-03-17T14:24:23;2.50;;;1.80;;
77276;SDS011;66330;52.166;9.978;2023-03-17T14:26:52;3.40;;;1.90;;
77276;SDS011;66330;52.166;9.978;2023-03-17T14:29:20;2.30;;;1.83;;
77276;SDS011;66330;52.166;9.978;2023-03-17T14:31:51;3.60;;;1.80;;
77276;SDS011;66330;52.166;9.978;2023-03-17T14:34:28;2.23;;;1.93;;
77276;SDS011;66330;52.166;9.978;2023-03-17T14:36:58;2.23;;;1.80;;
77276;SDS011;66330;52.166;9.978;2023-03-17T14:39:28;2.47;;;2.27;;
77276;SDS011;66330;52.166;9.978;2023-03-17T14:41:58;3.80;;;2.70;;
77276;SDS011;66330;52.166;9.978;2023-03-17T14:44:26;2.97;;;1.90;;
77276;SDS011;66330;52.166;9.978;2023-03-17T14:46:59;3.93;;;2.23;;
77276;SDS011;66330;52.166;9.978;2023-03-17T14:49:26;3.23;;;2.13;;
77276;SDS011;66330;52.166;9.978;2023-03-17T14:51:52;2.07;;;1.90;;
77276;SDS011;66330;52.166;9.978;2023-03-17T14:54:24;2.30;;;2.10;;
77276;SDS011;66330;52.166;9.978;2023-03-17T14:56:53;2.00;;;1.80;;
77276;SDS011;66330;52.166;9.978;2023-03-17T14:59:36;3.20;;;2.17;;
77276;SDS011;66330;52.166;9.978;2023-03-17T15:05:23;4.23;;;2.13;;
77276;SDS011;66330;52.166;9.978;2023-03-17T15:07:59;2.50;;;1.87;;
77276;SDS011;66330;52.166;9.978;2023-03-17T15:10:25;2.07;;;1.77;;
77276;SDS011;66330;52.166;9.978;2023-03-17T15:13:01;1.67;;;1.57;;
77276;SDS011;66330;52.166;9.978;2023-03-17T15:15:30;2.13;;;1.93;;
77276;SDS011;66330;52.166;9.978;2023-03-17T15:17:59;3.03;;;1.87;;
77276;SDS011;66330;52.166;9.978;2023-03-17T15:20:37;3.27;;;2.10;;
77276;SDS011;66330;52.166;9.978;2023-03-17T15:23:13;2.27;;;2.07;;
77276;SDS011;66330;52.166;9.978;2023-03-17T15:25:44;2.23;;;1.83;;
77276;SDS011;66330;52.166;9.978;2023-03-17T15:28:17;2.10;;;1.80;;
77276;SDS011;66330;52.166;9.978;2023-03-17T15:30:45;3.30;;;1.80;;
77276;SDS011;66330;52.166;9.978;2023-03-17T15:35:45;2.07;;;1.87;;
77276;SDS011;66330;52.166;9.978;2023-03-17T15:38:12;1.77;;;1.67;;
77276;SDS011;66330;52.166;9.978;2023-03-17T15:40:37;4.33;;;1.87;;
77276;SDS011;66330;52.166;9.978;2023-03-17T15:43:03;2.50;;;2.13;;
77276;SDS011;66330;52.166;9.978;2023-03-17T15:45:28;2.67;;;2.43;;
77276;SDS011;66330;52.166;9.978;2023-03-17T15:47:54;3.83;;;2.40;;
77276;SDS011;66330;52.166;9.978;2023-03-17T15:50:27;1.90;;;1.80;;
77276;SDS011;66330;52.166;9.978;2023-03-17T15:52:55;3.20;;;1.90;;
77276;SDS011;66330;52.166;9.978;2023-03-17T15:55:22;2.40;;;2.20;;
77276;SDS011;66330;52.166;9.978;2023-03-17T15:57:50;2.20;;;1.90;;
77276;SDS011;66330;52.166;9.978;2023-03-17T16:00:17;3.60;;;2.50;;
77276;SDS011;66330;52.166;9.978;2023-03-17T16:02:44;3.93;;;1.80;;
77276;SDS011;66330;52.166;9.978;2023-03-17T16:05:16;2.77;;;1.80;;
77276;SDS011;66330;52.166;9.978;2023-03-17T16:07:44;2.20;;;2.10;;
77276;SDS011;66330;52.166;9.978;2023-03-17T16:10:14;1.87;;;1.77;;
77276;SDS011;66330;52.166;9.978;2023-03-17T16:12:43;1.77;;;1.67;;
77276;SDS011;66330;52.166;9.978;2023-03-17T16:15:13;2.00;;;1.80;;
77276;SDS011;66330;52.166;9.978;2023-03-17T16:17:44;2.73;;;1.90;;
77276;SDS011;66330;52.166;9.978;2023-03-17T16:20:17;2.63;;;2.20;;
77276;SDS011;66330;52.166;9.978;2023-03-17T16:22:53;2.67;;;2.17;;
77276;SDS011;66330;52.166;9.978;2023-03-17T16:25:25;3.13;;;2.00;;
77276;SDS011;66330;52.166;9.978;2023-03-17T16:27:54;2.77;;;2.33;;
77276;SDS011;66330;52.166;9.978;2023-03-17T16:30:22;2.20;;;2.00;;
77276;SDS011;66330;52.166;9.978;2023-03-17T16:32:49;3.23;;;2.00;;
77276;SDS011;66330;52.166;9.978;2023-03-17T16:35:16;4.83;;;2.13;;